Terminal Aerodrome Forecast
Issued by NWS

Home | Current Version | Previous Version | Text Only | Print | Product List | Glossary On
Versions: 1 2 3 4 5 6 7 8 9 10 11 12 13 14 15 16 17 18 19
000
FTUS41 KALY 202300
TAFPSF
TAF
KPSF 202324Z 2100/2124 18010G17KT P6SM SCT040
     FM210400 20008KT 5SM BR SCT007 BKN015
     FM210700 20005KT 4SM BR VCSH SCT003 OVC007
     FM210900 20004KT 3SM BR VCSH BKN003 OVC006
     FM211400 19006KT P6SM BKN012 OVC020
     FM211700 21007KT P6SM BKN030
     FM212200 22005KT P6SM VCSH BKN035=

USA.gov is the U.S. government's official web portal to all federal, state and local government web resources and services.